Time;durP1;ratioP1;P1;durP2;ratioP2;P2;SDS_P1;SDS_P2;PMS_P1;PMS_P2;Temp;Humidity;BMP_temperature;BMP_pressure;BME280_temperature;BME280_humidity;BME280_pressure;Samples;Min_cycle;Max_cycle;Signal;HPM_P1;HPM_P2
2021/04/02 00:01:39;;;;;;;14.80;9.65;;;;;;;5.91;67.21;94603.66;10466990;28;20271;-80
2021/04/02 00:06:40;;;;;;;11.55;7.80;;;;;;;5.82;68.96;94599.81;10469413;28;20458;-80
2021/04/02 00:11:43;;;;;;;10.60;7.00;;;;;;;5.73;70.73;94595.94;10467542;28;20044;-80
2021/04/02 00:16:43;;;;;;;10.48;7.25;;;;;;;5.61;73.26;94590.72;10466693;28;20063;-80
2021/04/02 00:21:44;;;;;;;10.33;6.93;;;;;;;5.46;74.96;94594.78;10465976;28;20507;-80
2021/04/02 00:26:44;;;;;;;12.75;7.15;;;;;;;5.44;76.40;94586.22;10466423;28;20697;-81
2021/04/02 00:31:45;;;;;;;9.23;6.47;;;;;;;5.33;77.54;94583.66;10467378;28;20139;-80
2021/04/02 00:36:45;;;;;;;9.23;6.57;;;;;;;5.30;78.84;94574.28;10469097;28;20025;-80
2021/04/02 00:41:46;;;;;;;13.23;7.10;;;;;;;5.30;80.17;94568.94;10467120;28;20035;-80
2021/04/02 00:46:46;;;;;;;9.20;6.27;;;;;;;5.38;80.23;94559.75;10465613;28;20031;-80
2021/04/02 00:51:46;;;;;;;13.03;6.90;;;;;;;5.42;80.74;94564.34;10467100;28;20064;-80
2021/04/02 00:56:47;;;;;;;16.73;8.33;;;;;;;5.47;80.75;94556.41;10462947;28;20021;-79
2021/04/02 01:01:47;;;;;;;10.95;7.97;;;;;;;5.54;81.26;94556.25;10464292;28;20346;-79
2021/04/02 01:06:49;;;;;;;13.63;7.75;;;;;;;5.53;81.98;94546.63;10465011;28;20048;-81
2021/04/02 01:11:49;;;;;;;11.73;6.32;;;;;;;5.51;82.62;94554.06;10475467;28;20068;-81
2021/04/02 01:16:49;;;;;;;13.03;6.87;;;;;;;5.41;84.62;94549.38;10470758;28;20116;-80
2021/04/02 01:21:59;;;;;;;19.75;8.48;;;;;;;5.35;86.55;94544.25;10470363;28;20476;-80
2021/04/02 01:27:02;;;;;;;13.57;7.07;;;;;;;5.33;88.58;94539.16;10467484;28;20413;-81
2021/04/02 01:32:08;;;;;;;16.25;7.38;;;;;;;5.36;90.13;94529.84;10467531;28;20078;-81
2021/04/02 01:37:17;;;;;;;16.42;7.85;;;;;;;5.23;93.71;94517.69;10468905;28;20033;-81
2021/04/02 01:42:21;;;;;;;17.75;9.02;;;;;;;5.19;93.22;94519.22;10470505;28;20024;-81
2021/04/02 01:47:24;;;;;;;14.55;7.63;;;;;;;5.01;95.69;94510.47;10474169;28;20060;-80
2021/04/02 01:52:25;;;;;;;14.77;7.28;;;;;;;4.99;96.59;94509.09;10467380;28;20075;-80
2021/04/02 01:57:27;;;;;;;15.60;8.23;;;;;;;4.93;96.65;94505.53;10465020;28;20024;-80
2021/04/02 02:02:28;;;;;;;14.25;7.70;;;;;;;5.01;96.43;94509.66;10468534;28;20025;-79
2021/04/02 02:07:29;;;;;;;13.43;8.73;;;;;;;5.03;95.45;94511.00;10467007;28;20110;-80
2021/04/02 02:12:30;;;;;;;18.98;9.52;;;;;;;5.10;96.70;94501.00;10463567;28;20800;-80
2021/04/02 02:17:30;;;;;;;19.98;8.48;;;;;;;5.16;96.60;94501.88;10463009;28;20111;-81
2021/04/02 02:22:31;;;;;;;17.83;9.68;;;;;;;5.00;96.83;94500.84;10464564;28;20168;-81
2021/04/02 02:27:32;;;;;;;19.33;8.07;;;;;;;4.79;97.84;94503.19;10463441;28;20025;-80
2021/04/02 02:32:33;;;;;;;19.95;9.60;;;;;;;4.66;100.00;94505.38;10464614;28;20029;-80
2021/04/02 02:37:35;;;;;;;18.67;9.20;;;;;;;4.61;100.00;94498.13;10454877;28;20025;-80
2021/04/02 02:42:37;;;;;;;17.33;9.73;;;;;;;4.57;100.00;94500.44;10447453;28;20049;-80
2021/04/02 02:47:37;;;;;;;26.17;11.57;;;;;;;4.62;100.00;94505.06;10451417;28;20027;-81
2021/04/02 02:52:40;;;;;;;19.77;9.63;;;;;;;4.68;100.00;94501.44;10446216;28;20031;-80
2021/04/02 02:57:43;;;;;;;27.10;11.10;;;;;;;4.57;100.00;94489.81;10444135;28;20072;-79
2021/04/02 03:02:47;;;;;;;18.52;8.18;;;;;;;4.53;100.00;94486.00;10443635;28;20093;-80
2021/04/02 03:07:52;;;;;;;16.02;9.07;;;;;;;4.52;100.00;94489.75;10446531;28;20098;-81
2021/04/02 03:12:55;;;;;;;17.50;10.02;;;;;;;4.50;100.00;94502.47;10446072;28;20044;-81
2021/04/02 03:17:59;;;;;;;22.15;11.13;;;;;;;4.60;100.00;94496.50;10445468;28;20024;-81
2021/04/02 03:23:02;;;;;;;26.90;12.93;;;;;;;4.49;100.00;94500.84;10463236;28;20023;-79
2021/04/02 03:28:04;;;;;;;30.63;12.32;;;;;;;4.44;100.00;94490.13;10486290;28;20082;-80
2021/04/02 03:33:12;;;;;;;24.95;12.88;;;;;;;4.44;100.00;94484.81;10483303;28;20090;-80
2021/04/02 03:38:15;;;;;;;24.60;11.88;;;;;;;4.49;100.00;94484.88;10482846;28;20043;-79
2021/04/02 03:43:17;;;;;;;26.27;14.05;;;;;;;4.50;100.00;94480.38;10484354;28;20027;-80
2021/04/02 03:48:19;;;;;;;31.23;13.02;;;;;;;4.49;100.00;94479.56;10484085;28;20391;-81
2021/04/02 03:53:36;;;;;;;35.72;15.38;;;;;;;4.43;100.00;94475.22;10483990;28;20032;-80
2021/04/02 03:58:40;;;;;;;31.95;15.45;;;;;;;4.46;100.00;94474.72;10483868;28;20031;-81
2021/04/02 04:03:45;;;;;;;29.73;14.70;;;;;;;4.56;100.00;94468.75;10482254;28;20491;-72
2021/04/02 04:08:48;;;;;;;25.30;11.85;;;;;;;4.58;100.00;94467.47;10482030;28;20052;-81
2021/04/02 04:13:50;;;;;;;22.38;10.73;;;;;;;4.45;100.00;94470.44;10481448;28;20067;-80
2021/04/02 04:18:59;;;;;;;20.98;10.40;;;;;;;4.30;100.00;94479.00;10482494;28;20108;-80
2021/04/02 04:24:01;;;;;;;20.25;10.68;;;;;;;4.34;100.00;94471.31;10482102;28;20017;-80
2021/04/02 04:29:03;;;;;;;21.83;10.27;;;;;;;4.37;100.00;94469.00;10481510;28;20093;-81
2021/04/02 04:34:04;;;;;;;24.20;12.98;;;;;;;4.53;100.00;94472.69;10454169;28;20476;-82
2021/04/02 04:39:06;;;;;;;32.35;11.88;;;;;;;4.61;100.00;94476.84;10441073;28;20025;-80
2021/04/02 04:44:07;;;;;;;31.05;12.48;;;;;;;4.62;100.00;94468.59;10441959;28;20112;-80
2021/04/02 04:49:08;;;;;;;33.00;12.20;;;;;;;4.54;100.00;94473.53;10448474;28;20487;-80
2021/04/02 04:54:10;;;;;;;31.42;13.90;;;;;;;4.68;100.00;94472.16;10448814;28;20112;-82
2021/04/02 04:59:11;;;;;;;36.22;15.48;;;;;;;4.76;100.00;94463.75;10449564;28;20111;-78
2021/04/02 05:04:13;;;;;;;23.77;11.52;;;;;;;4.94;100.00;94465.34;10447727;28;20036;-77
2021/04/02 05:09:15;;;;;;;20.33;11.13;;;;;;;5.09;100.00;94471.94;10447309;28;20111;-77
2021/04/02 05:14:18;;;;;;;19.65;10.20;;;;;;;4.98;100.00;94476.31;10447263;28;20048;-76
2021/04/02 05:19:19;;;;;;;26.75;8.73;;;;;;;4.87;100.00;94474.56;10447355;28;20029;-76
2021/04/02 05:24:20;;;;;;;20.27;8.82;;;;;;;4.75;100.00;94485.31;10445682;28;20057;-76
2021/04/02 05:29:21;;;;;;;15.82;9.23;;;;;;;4.67;100.00;94475.06;10446141;28;20021;-76
2021/04/02 05:34:21;;;;;;;19.02;10.25;;;;;;;5.19;100.00;94473.94;10445780;28;20032;-76
2021/04/02 05:39:22;;;;;;;30.80;9.50;;;;;;;6.56;93.04;94477.63;10445395;28;20798;-76
2021/04/02 05:44:27;;;;;;;14.33;8.13;;;;;;;7.29;83.53;94471.75;10445931;28;20271;-76
2021/04/02 05:49:27;;;;;;;22.30;9.23;;;;;;;7.53;79.72;94464.09;10461334;28;20456;-76
2021/04/02 05:54:30;;;;;;;26.67;11.18;;;;;;;8.29;74.53;94470.78;10487112;28;20043;-76
2021/04/02 05:59:31;;;;;;;28.98;11.23;;;;;;;9.36;66.94;94454.97;10487648;28;20032;-75
2021/04/02 06:04:31;;;;;;;21.52;11.27;;;;;;;10.05;60.37;94456.03;10486065;28;20893;-77
2021/04/02 06:09:32;;;;;;;31.50;12.60;;;;;;;11.36;58.91;94447.56;10488028;28;20127;-76
2021/04/02 06:14:32;;;;;;;45.33;16.10;;;;;;;12.38;50.81;94441.25;10456178;28;20036;-78
2021/04/02 06:19:33;;;;;;;29.65;15.43;;;;;;;12.49;47.08;94440.00;10447278;28;20025;-76
2021/04/02 06:24:40;;;;;;;36.30;15.27;;;;;;;12.77;47.13;94453.63;10472005;28;20031;-76
2021/04/02 06:29:47;;;;;;;31.85;14.80;;;;;;;13.86;45.21;94450.63;10487795;28;20044;-75
2021/04/02 06:34:49;;;;;;;48.08;16.35;;;;;;;14.48;42.38;94449.34;10470739;28;20455;-76
2021/04/02 06:39:51;;;;;;;43.85;15.27;;;;;;;14.25;43.58;94446.59;10448519;28;20535;-76
2021/04/02 06:44:58;;;;;;;38.15;14.40;;;;;;;14.83;41.65;94436.94;10451317;28;20024;-77
2021/04/02 06:49:59;;;;;;;32.92;15.23;;;;;;;15.91;40.07;94437.97;10488402;28;20028;-78
2021/04/02 06:55:00;;;;;;;33.35;14.52;;;;;;;16.76;38.26;94434.94;10489034;28;20032;-77
2021/04/02 07:00:01;;;;;;;28.92;12.32;;;;;;;17.22;37.03;94425.34;10489317;28;20082;-76
2021/04/02 07:05:01;;;;;;;26.05;9.13;;;;;;;17.87;35.31;94422.53;10488405;28;20032;-77
2021/04/02 07:10:02;;;;;;;18.35;11.00;;;;;;;18.50;34.47;94416.44;10483543;28;20033;-76
2021/04/02 07:15:03;;;;;;;21.13;9.32;;;;;;;19.00;34.16;94408.56;10484558;28;20028;-77
2021/04/02 07:20:05;;;;;;;33.05;11.63;;;;;;;20.35;32.12;94413.41;10485293;28;20074;-77
2021/04/02 07:25:10;;;;;;;16.05;9.20;;;;;;;21.56;29.83;94419.97;10474285;28;20075;-77
2021/04/02 07:30:12;;;;;;;22.02;10.50;;;;;;;21.77;30.39;94406.06;10442585;28;20055;-77
2021/04/02 07:35:18;;;;;;;21.33;9.75;;;;;;;22.15;29.27;94393.66;10479395;28;20125;-77
2021/04/02 07:40:25;;;;;;;25.63;9.20;;;;;;;22.31;28.10;94404.59;10476107;28;20029;-78
2021/04/02 07:45:30;;;;;;;16.70;9.37;;;;;;;22.44;28.88;94404.50;10440842;28;20055;-77
2021/04/02 07:50:56;;;;;;;32.38;10.13;;;;;;;23.16;28.30;94397.78;10451016;28;20025;-76
2021/04/02 07:56:06;;;;;;;24.33;9.05;;;;;;;23.72;27.18;94389.03;10450162;28;20040;-80
2021/04/02 08:01:06;;;;;;;17.77;9.57;;;;;;;24.92;25.12;94383.38;10481673;28;20036;-76
2021/04/02 08:06:09;;;;;;;22.02;8.82;;;;;;;25.88;25.23;94382.81;10484713;28;20060;-84
2021/04/02 08:11:19;;;;;;;25.35;10.18;;;;;;;25.08;24.89;94394.97;10487431;28;20029;-79
2021/04/02 08:16:32;;;;;;;22.08;9.45;;;;;;;25.33;24.94;94386.22;10472339;28;20021;-78
2021/04/02 08:21:38;;;;;;;22.73;9.95;;;;;;;25.39;24.80;94378.44;10439984;28;20021;-77
2021/04/02 08:26:39;;;;;;;27.52;10.45;;;;;;;24.34;26.00;94382.56;10472505;28;20052;-78
2021/04/02 08:31:43;;;;;;;28.77;11.02;;;;;;;23.53;26.80;94373.41;10480615;28;20052;-78
2021/04/02 08:36:46;;;;;;;30.75;12.80;;;;;;;22.84;27.95;94376.00;10482150;28;20464;-78
2021/04/02 08:41:46;;;;;;;28.27;11.20;;;;;;;23.42;28.36;94379.88;10457278;28;20025;-78
2021/04/02 08:46:47;;;;;;;29.80;11.00;;;;;;;24.19;27.39;94369.78;10445353;28;20039;-78
2021/04/02 08:51:48;;;;;;;26.70;11.52;;;;;;;25.65;24.88;94373.94;10440271;28;20060;-78
2021/04/02 08:56:49;;;;;;;22.50;12.52;;;;;;;25.41;25.47;94374.13;10439705;28;20051;-78
2021/04/02 09:01:51;;;;;;;31.23;12.43;;;;;;;24.79;25.87;94376.53;10439825;28;20017;-78
2021/04/02 09:06:51;;;;;;;27.38;13.07;;;;;;;22.54;28.87;94371.09;10439367;28;20049;-78
2021/04/02 09:11:55;;;;;;;28.13;13.80;;;;;;;20.99;30.94;94368.06;10442679;28;20492;-78
2021/04/02 09:16:56;;;;;;;33.60;14.82;;;;;;;19.76;32.27;94366.34;10443038;28;20106;-77
2021/04/02 09:21:57;;;;;;;33.30;13.32;;;;;;;19.99;32.96;94357.75;10459547;28;20029;-79
2021/04/02 09:26:57;;;;;;;33.63;13.50;;;;;;;19.79;33.22;94359.44;10483057;28;20024;-79
2021/04/02 09:31:59;;;;;;;41.05;17.13;;;;;;;20.62;33.98;94362.75;10489268;28;20093;-79
2021/04/02 09:37:00;;;;;;;28.55;14.70;;;;;;;21.34;32.93;94344.78;10491181;28;20025;-79
2021/04/02 09:42:03;;;;;;;36.85;14.60;;;;;;;22.29;32.32;94343.91;10491621;28;20533;-79
2021/04/02 09:47:09;;;;;;;21.13;6.65;;;;;;;23.33;32.67;94331.56;10492000;28;20037;-79
2021/04/02 09:52:10;;;;;;;14.73;4.82;;;;;;;24.23;31.76;94335.72;10491114;28;20087;-79
2021/04/02 09:57:11;;;;;;;11.68;4.65;;;;;;;24.51;31.00;94331.78;10491093;28;20082;-78
2021/04/02 10:02:11;;;;;;;12.15;4.60;;;;;;;23.57;32.47;94332.34;10489916;28;20052;-79
2021/04/02 10:07:11;;;;;;;14.07;4.97;;;;;;;23.91;32.81;94334.47;10447420;28;20083;-79
2021/04/02 10:12:12;;;;;;;10.70;4.40;;;;;;;22.72;32.60;94335.03;10445223;28;20312;-79
2021/04/02 10:17:12;;;;;;;32.80;5.30;;;;;;;19.71;37.72;94363.06;10443962;28;20765;-77
2021/04/02 10:22:12;;;;;;;9.00;5.33;;;;;;;19.61;40.80;94365.09;10458185;28;20032;-77
2021/04/02 10:27:15;;;;;;;24.97;5.80;;;;;;;21.31;38.27;94370.88;10485951;28;20270;-78
2021/04/02 10:32:15;;;;;;;27.23;5.85;;;;;;;20.99;38.51;94386.41;10485862;28;20025;-77
2021/04/02 10:37:16;;;;;;;23.50;5.53;;;;;;;20.85;39.92;94394.19;10452878;28;20029;-77
2021/04/02 10:42:16;;;;;;;34.67;7.07;;;;;;;20.46;43.58;94403.59;10443587;28;20016;-78
2021/04/02 10:47:16;;;;;;;20.47;7.53;;;;;;;18.53;74.13;94425.88;10444075;28;20048;-77
2021/04/02 10:52:17;;;;;;;15.63;6.10;;;;;;;16.57;90.95;94433.31;10442677;28;20067;-77
2021/04/02 10:57:17;;;;;;;13.70;6.53;;;;;;;15.53;99.26;94434.63;10443858;28;20291;-77
2021/04/02 11:02:17;;;;;;;15.90;8.10;;;;;;;14.24;100.00;94444.19;10442699;28;20044;-77
2021/04/02 11:07:18;;;;;;;20.70;9.93;;;;;;;13.30;100.00;94450.56;10457116;28;20294;-77
2021/04/02 11:12:19;;;;;;;17.13;11.53;;;;;;;12.26;100.00;94449.75;10483382;28;20074;-77
2021/04/02 11:17:19;;;;;;;22.33;12.70;;;;;;;11.54;100.00;94432.56;10482815;28;20279;-77
2021/04/02 11:22:20;;;;;;;16.10;11.13;;;;;;;11.23;100.00;94414.06;10470325;28;20025;-77
2021/04/02 11:27:21;;;;;;;19.45;11.45;;;;;;;11.64;100.00;94391.28;10441315;28;20029;-77
2021/04/02 11:32:22;;;;;;;18.20;11.65;;;;;;;12.17;100.00;94390.34;10442171;28;20035;-77
2021/04/02 11:37:22;;;;;;;17.52;11.68;;;;;;;12.65;100.00;94386.66;10441525;28;20858;-77
2021/04/02 11:42:23;;;;;;;24.55;13.02;;;;;;;13.68;100.00;94380.22;10439709;28;20017;-72
2021/04/02 11:47:23;;;;;;;25.73;12.53;;;;;;;14.72;100.00;94386.91;10441849;28;20703;-73
2021/04/02 11:52:24;;;;;;;23.87;10.00;;;;;;;15.70;100.00;94374.31;10441073;28;20033;-73
2021/04/02 11:57:24;;;;;;;12.45;7.97;;;;;;;17.00;100.00;94358.44;10441175;28;20283;-72
2021/04/02 12:02:25;;;;;;;10.90;6.88;;;;;;;17.56;100.00;94342.13;10442170;28;20048;-72
2021/04/02 12:07:25;;;;;;;10.25;6.28;;;;;;;18.08;95.46;94346.50;10441439;28;20087;-73
2021/04/02 12:12:26;;;;;;;9.23;6.23;;;;;;;18.42;96.12;94332.97;10441463;28;20068;-72
2021/04/02 12:17:26;;;;;;;7.70;5.18;;;;;;;18.09;75.97;94320.88;10439920;28;20859;-73
2021/04/02 12:22:26;;;;;;;9.48;4.70;;;;;;;17.08;82.84;94325.06;10440827;28;20108;-73
2021/04/02 12:27:27;;;;;;;9.63;5.10;;;;;;;16.79;78.07;94314.88;10440529;28;20434;-73
2021/04/02 12:32:27;;;;;;;7.07;4.80;;;;;;;16.83;82.83;94315.03;10440051;28;20510;-73
2021/04/02 12:37:27;;;;;;;12.07;5.40;;;;;;;17.18;83.29;94306.81;10439115;28;20033;-73
2021/04/02 12:42:28;;;;;;;6.20;4.30;;;;;;;17.33;81.67;94313.63;10439375;28;20021;-73
2021/04/02 12:47:28;;;;;;;6.00;4.33;;;;;;;17.71;78.00;94299.22;10438315;28;20079;-73
2021/04/02 12:52:28;;;;;;;9.87;5.30;;;;;;;17.76;80.04;94288.94;10438804;28;20029;-73
2021/04/02 12:57:29;;;;;;;16.37;5.20;;;;;;;18.12;75.52;94286.78;10438660;28;20134;-73
2021/04/02 13:02:29;;;;;;;8.13;4.40;;;;;;;17.36;69.38;94286.59;10438851;28;20017;-73
2021/04/02 13:07:29;;;;;;;7.67;4.50;;;;;;;17.01;72.20;94275.91;10444945;28;20619;-73
2021/04/02 13:12:30;;;;;;;8.20;5.83;;;;;;;16.52;76.30;94264.50;10447480;28;20033;-73
2021/04/02 13:17:30;;;;;;;8.75;5.32;;;;;;;16.41;77.37;94261.34;10447097;28;20025;-73
2021/04/02 13:22:31;;;;;;;6.63;4.90;;;;;;;16.68;75.24;94256.66;10447150;28;20069;-73
2021/04/02 13:27:31;;;;;;;6.85;4.75;;;;;;;16.68;70.29;94259.38;10447021;28;20036;-71
2021/04/02 13:32:32;;;;;;;7.05;5.18;;;;;;;16.48;76.82;94245.38;10446636;28;20082;-73
2021/04/02 13:37:32;;;;;;;9.27;5.53;;;;;;;16.34;72.83;94250.97;10446449;28;20056;-73
2021/04/02 13:42:33;;;;;;;11.65;5.00;;;;;;;16.13;72.76;94256.28;10446561;28;20049;-73
2021/04/02 13:47:34;;;;;;;9.30;4.88;;;;;;;16.01;73.24;94248.75;10445193;28;20031;-73
2021/04/02 13:52:35;;;;;;;6.70;4.97;;;;;;;16.04;73.25;94247.34;10445999;28;20040;-73
2021/04/02 13:57:35;;;;;;;9.80;5.15;;;;;;;16.39;72.91;94241.88;10444918;28;20036;-72
2021/04/02 14:02:36;;;;;;;9.27;5.03;;;;;;;16.47;70.65;94235.63;10445779;28;20021;-72
2021/04/02 14:07:37;;;;;;;8.03;4.77;;;;;;;16.47;69.20;94224.78;10445104;28;20051;-72
2021/04/02 14:12:38;;;;;;;14.23;5.07;;;;;;;16.53;71.55;94233.53;10448963;28;20300;-72
2021/04/02 14:17:39;;;;;;;10.93;4.43;;;;;;;16.55;69.02;94229.41;10448689;28;20048;-72
2021/04/02 14:22:40;;;;;;;6.50;4.40;;;;;;;16.42;70.14;94224.94;10468526;28;20356;-72
2021/04/02 14:27:40;;;;;;;6.95;3.85;;;;;;;16.79;67.54;94224.53;10452120;28;20037;-73
2021/04/02 14:32:41;;;;;;;9.30;4.70;;;;;;;16.95;72.89;94216.69;10478257;28;20103;-72
2021/04/02 14:37:42;;;;;;;5.77;4.10;;;;;;;16.94;64.90;94217.78;10458371;28;20086;-73
2021/04/02 14:42:43;;;;;;;7.35;4.60;;;;;;;16.80;65.96;94223.41;10447297;28;20044;-72
2021/04/02 14:47:46;;;;;;;4.47;4.05;;;;;;;16.75;66.71;94218.97;10487073;28;20029;-73
2021/04/02 14:52:46;;;;;;;7.65;4.45;;;;;;;16.54;66.94;94205.31;10483581;28;20021;-73
2021/04/02 14:57:47;;;;;;;7.78;5.60;;;;;;;16.48;71.84;94214.72;10445223;28;20044;-72
2021/04/02 15:02:48;;;;;;;8.65;4.07;;;;;;;16.54;70.69;94216.94;10446851;28;20082;-73
2021/04/02 15:07:49;;;;;;;6.18;4.03;;;;;;;16.16;69.40;94209.53;10444218;28;20565;-73
2021/04/02 15:12:50;;;;;;;6.53;3.95;;;;;;;16.12;73.81;94211.28;10460130;28;20029;-73
2021/04/02 15:17:51;;;;;;;7.90;4.68;;;;;;;15.97;73.40;94203.66;10483182;28;20471;-73
2021/04/02 15:22:52;;;;;;;11.48;4.28;;;;;;;15.88;71.68;94209.88;10482067;28;20128;-73
2021/04/02 15:27:53;;;;;;;14.38;4.93;;;;;;;15.99;77.90;94204.13;10482257;28;20020;-73
2021/04/02 15:32:53;;;;;;;6.60;5.17;;;;;;;16.09;76.76;94205.72;10482867;28;20029;-73
2021/04/02 15:37:56;;;;;;;14.63;5.30;;;;;;;16.16;75.83;94204.13;10482124;28;20032;-73
2021/04/02 15:42:57;;;;;;;18.38;5.35;;;;;;;16.23;77.47;94217.19;10483147;28;20406;-73
2021/04/02 15:47:57;;;;;;;10.15;5.05;;;;;;;16.16;77.86;94204.13;10482861;28;20043;-73
2021/04/02 15:52:58;;;;;;;23.83;6.45;;;;;;;16.19;75.62;94211.59;10481142;28;20033;-73
2021/04/02 15:57:58;;;;;;;12.90;5.03;;;;;;;16.21;75.06;94219.41;10482230;28;20024;-72
2021/04/02 16:03:02;;;;;;;8.83;4.60;;;;;;;16.16;75.34;94228.50;10481806;28;20764;-73
2021/04/02 16:08:03;;;;;;;10.35;5.10;;;;;;;16.11;75.36;94219.75;10458886;28;609990;-73
2021/04/02 16:13:04;;;;;;;8.10;4.85;;;;;;;16.22;73.28;94219.09;10482765;28;20037;-73
2021/04/02 16:18:05;;;;;;;17.98;5.50;;;;;;;16.11;73.64;94219.75;10482328;28;20024;-72
2021/04/02 16:23:05;;;;;;;9.75;4.32;;;;;;;15.89;74.56;94216.91;10481964;28;20025;-73
2021/04/02 16:28:05;;;;;;;15.80;6.00;;;;;;;15.89;75.51;94222.31;10482783;28;20028;-73
2021/04/02 16:33:06;;;;;;;10.67;4.77;;;;;;;15.84;76.43;94219.75;10478742;28;20021;-73
2021/04/02 16:38:07;;;;;;;11.10;4.63;;;;;;;15.68;75.71;94216.72;10463614;28;20111;-73
2021/04/02 16:43:07;;;;;;;13.82;5.97;;;;;;;15.40;76.51;94229.72;10478885;28;20028;-73
2021/04/02 16:48:08;;;;;;;11.98;6.10;;;;;;;15.45;78.74;94234.22;10483191;28;20399;-73
2021/04/02 16:53:08;;;;;;;17.45;8.02;;;;;;;15.13;78.05;94239.69;10483280;28;20056;-72
2021/04/02 16:58:08;;;;;;;18.27;9.30;;;;;;;15.11;80.10;94244.63;10482974;28;20043;-72
2021/04/02 17:03:09;;;;;;;16.90;8.10;;;;;;;14.92;80.15;94249.50;10447898;28;20021;-73
2021/04/02 17:08:09;;;;;;;16.20;8.23;;;;;;;14.88;82.63;94245.84;10442893;28;20295;-72
2021/04/02 17:13:09;;;;;;;22.43;7.17;;;;;;;14.98;79.86;94246.31;10443883;28;20041;-73
2021/04/02 17:18:10;;;;;;;15.10;6.70;;;;;;;15.01;80.11;94253.84;10444438;28;20111;-73
2021/04/02 17:23:12;;;;;;;16.37;7.23;;;;;;;15.17;80.44;94256.91;10444237;28;20022;-73
2021/04/02 17:28:12;;;;;;;10.55;5.50;;;;;;;14.94;80.75;94263.50;10454108;28;20302;-73
2021/04/02 17:33:13;;;;;;;10.53;6.00;;;;;;;14.78;80.78;94269.34;10484934;28;20563;-73
2021/04/02 17:38:13;;;;;;;14.02;6.43;;;;;;;14.67;80.38;94268.78;10485521;28;20039;-73
2021/04/02 17:43:15;;;;;;;8.52;5.55;;;;;;;14.73;81.47;94277.56;10484706;28;20013;-73
2021/04/02 17:48:16;;;;;;;17.52;6.38;;;;;;;14.85;82.25;94279.72;10484906;28;20099;-72
2021/04/02 17:53:17;;;;;;;14.43;5.43;;;;;;;14.91;81.75;94283.06;10490617;28;20859;-72
2021/04/02 17:58:17;;;;;;;12.80;4.57;;;;;;;14.81;78.69;94282.22;10491337;28;20111;-72
2021/04/02 18:03:17;;;;;;;8.98;4.65;;;;;;;14.76;79.18;94285.06;10492032;28;20279;-72
2021/04/02 18:08:18;;;;;;;16.73;4.70;;;;;;;14.50;81.66;94296.50;10490576;28;20739;-73
2021/04/02 18:13:18;;;;;;;7.57;4.20;;;;;;;14.40;80.46;94304.88;10487953;28;20032;-72
2021/04/02 18:18:19;;;;;;;8.32;4.63;;;;;;;14.26;82.38;94310.34;10486280;28;20282;-73
2021/04/02 18:23:19;;;;;;;7.82;4.70;;;;;;;14.19;84.71;94324.28;10445756;28;20025;-73
2021/04/02 18:28:20;;;;;;;15.02;4.18;;;;;;;14.23;82.84;94324.44;10445891;28;20878;-72
2021/04/02 18:33:21;;;;;;;14.85;4.47;;;;;;;14.33;85.51;94329.63;10445664;28;20031;-72
2021/04/02 18:38:21;;;;;;;7.78;4.90;;;;;;;14.34;81.84;94320.44;10443736;28;20039;-72
2021/04/02 18:43:22;;;;;;;12.33;5.10;;;;;;;14.49;84.81;94329.25;10444910;28;20029;-73
2021/04/02 18:48:22;;;;;;;14.25;5.13;;;;;;;14.56;83.16;94334.25;10444849;28;20056;-73
2021/04/02 18:53:22;;;;;;;9.70;4.97;;;;;;;14.47;84.38;94337.69;10445454;28;20021;-73
2021/04/02 18:58:23;;;;;;;11.57;5.78;;;;;;;14.59;82.32;94337.13;10445145;28;20550;-73
2021/04/02 19:03:26;;;;;;;12.20;5.13;;;;;;;14.61;81.44;94344.91;10443719;28;20025;-73
2021/04/02 19:08:26;;;;;;;14.38;5.72;;;;;;;14.68;81.65;94356.94;10444423;28;20299;-72
2021/04/02 19:13:26;;;;;;;17.80;6.77;;;;;;;14.65;85.60;94373.78;10467554;28;20021;-73
2021/04/02 19:18:27;;;;;;;9.57;5.43;;;;;;;14.37;90.91;94373.06;10484886;28;20270;-73
2021/04/02 19:23:28;;;;;;;13.67;6.20;;;;;;;14.07;96.81;94382.69;10448826;28;20278;-73
2021/04/02 19:28:28;;;;;;;14.52;6.03;;;;;;;14.12;100.00;94379.84;10481062;28;20036;-73
2021/04/02 19:33:29;;;;;;;12.27;5.95;;;;;;;14.15;100.00;94381.97;10484330;28;20060;-73
2021/04/02 19:38:30;;;;;;;14.38;8.80;;;;;;;14.07;100.00;94388.09;10483661;28;20035;-72
2021/04/02 19:43:30;;;;;;;11.57;7.13;;;;;;;13.89;100.00;94396.00;10485430;28;20514;-73
2021/04/02 19:48:31;;;;;;;14.67;8.90;;;;;;;13.57;100.00;94407.72;10483581;28;20048;-73
2021/04/02 19:53:31;;;;;;;15.02;9.18;;;;;;;13.28;100.00;94400.66;10484176;28;20455;-73
2021/04/02 19:58:32;;;;;;;17.20;9.85;;;;;;;13.04;100.00;94406.25;10484437;28;20031;-72
2021/04/02 20:03:32;;;;;;;18.03;9.63;;;;;;;12.80;100.00;94418.75;10483821;28;20028;-73
2021/04/02 20:08:32;;;;;;;19.10;10.80;;;;;;;12.70;100.00;94404.63;10483277;28;20060;-73
2021/04/02 20:13:33;;;;;;;16.53;10.50;;;;;;;12.52;100.00;94408.97;10483845;28;20028;-73
2021/04/02 20:18:33;;;;;;;16.63;9.90;;;;;;;12.36;100.00;94416.47;10482273;28;20067;-72
2021/04/02 20:23:33;;;;;;;15.23;10.30;;;;;;;12.31;100.00;94422.75;10482841;28;20024;-72
2021/04/02 20:28:34;;;;;;;20.15;9.95;;;;;;;12.07;100.00;94436.25;10460297;28;20115;-72
2021/04/02 20:33:34;;;;;;;22.42;11.60;;;;;;;12.01;100.00;94449.00;10483094;28;20029;-72
2021/04/02 20:38:35;;;;;;;15.23;10.45;;;;;;;11.79;100.00;94447.63;10482552;28;20399;-72
2021/04/02 20:43:36;;;;;;;16.45;10.23;;;;;;;11.64;100.00;94439.72;10483444;28;20027;-72
2021/04/02 20:48:37;;;;;;;17.38;10.25;;;;;;;11.61;100.00;94457.25;10483102;28;20024;-72
2021/04/02 20:53:37;;;;;;;17.23;10.32;;;;;;;11.57;100.00;94464.28;10481974;28;20041;-72
2021/04/02 20:58:37;;;;;;;19.43;11.53;;;;;;;11.29;100.00;94463.25;10482742;28;20029;-72
2021/04/02 21:03:38;;;;;;;19.83;12.13;;;;;;;11.05;100.00;94474.75;10444256;28;20279;-72
2021/04/02 21:08:39;;;;;;;29.37;13.23;;;;;;;10.90;100.00;94493.72;10440936;28;20045;-71
2021/04/02 21:13:39;;;;;;;25.48;13.32;;;;;;;10.58;100.00;94503.84;10440379;28;21083;-72
2021/04/02 21:18:39;;;;;;;21.87;14.43;;;;;;;10.63;100.00;94513.75;10441388;28;20115;-72
2021/04/02 21:23:40;;;;;;;24.02;14.77;;;;;;;10.11;100.00;94518.59;10441083;28;20021;-72
2021/04/02 21:28:41;;;;;;;24.83;16.65;;;;;;;9.69;100.00;94541.28;10461518;28;20032;-72
2021/04/02 21:33:41;;;;;;;27.92;16.95;;;;;;;9.50;100.00;94535.66;10490197;28;20020;-72
2021/04/02 21:38:41;;;;;;;32.60;18.87;;;;;;;9.28;100.00;94544.84;10489391;28;20025;-72
2021/04/02 21:43:42;;;;;;;24.90;15.13;;;;;;;9.09;100.00;94541.09;10488439;28;20024;-72
2021/04/02 21:48:42;;;;;;;31.90;17.43;;;;;;;9.09;100.00;94530.38;10489041;28;20108;-73
2021/04/02 21:53:42;;;;;;;26.43;16.17;;;;;;;9.06;100.00;94527.13;10488613;28;20283;-72
2021/04/02 21:58:43;;;;;;;29.83;18.10;;;;;;;9.00;100.00;94511.31;10488267;28;20124;-72
2021/04/02 22:03:43;;;;;;;26.05;17.08;;;;;;;9.04;100.00;94494.44;10488926;28;20031;-72
2021/04/02 22:08:44;;;;;;;28.70;14.97;;;;;;;9.01;100.00;94481.56;10489493;28;20056;-72
2021/04/02 22:13:45;;;;;;;33.30;14.65;;;;;;;8.93;100.00;94473.25;10491372;28;20054;-73
2021/04/02 22:18:45;;;;;;;29.20;15.68;;;;;;;8.86;100.00;94473.53;10491746;28;20024;-72
2021/04/02 22:23:52;;;;;;;23.97;14.40;;;;;;;8.90;100.00;94461.19;10491445;28;20475;-72
2021/04/02 22:28:53;;;;;;;20.90;11.90;;;;;;;8.88;100.00;94456.09;10475107;28;20024;-72
2021/04/02 22:33:55;;;;;;;30.38;12.27;;;;;;;8.84;100.00;94455.03;10449790;28;20041;-72
2021/04/02 22:38:56;;;;;;;20.60;10.88;;;;;;;8.77;100.00;94440.31;10449092;28;20049;-72
2021/04/02 22:43:56;;;;;;;21.67;11.40;;;;;;;8.70;100.00;94437.91;10449149;28;20089;-72
2021/04/02 22:48:56;;;;;;;24.20;12.33;;;;;;;8.89;100.00;94440.84;10449532;28;20033;-72
2021/04/02 22:53:57;;;;;;;19.50;12.03;;;;;;;9.10;100.00;94432.75;10448615;28;20049;-72
2021/04/02 22:58:57;;;;;;;21.63;9.87;;;;;;;9.19;100.00;94423.09;10448454;28;20119;-72